createdAt,value
2022-10-12T00:02:20.117Z,87.61
2022-10-12T00:05:21.815Z,87.57
2022-10-12T00:08:24.653Z,87.45
2022-10-12T00:11:27.954Z,87.96
2022-10-12T00:14:29.651Z,87.94
2022-10-12T00:17:31.169Z,87.84
2022-10-12T00:20:32.982Z,88.06
2022-10-12T00:23:36.972Z,87.94
2022-10-12T00:26:38.694Z,87.92
2022-10-12T00:29:41.087Z,87.94
2022-10-12T00:32:42.658Z,87.95
2022-10-12T00:35:44.645Z,87.62
2022-10-12T00:38:48.321Z,87.81
2022-10-12T00:41:50.014Z,87.89
2022-10-12T00:44:52.286Z,87.62
2022-10-12T00:47:55.909Z,88.15
2022-10-12T00:50:58.439Z,87.55
2022-10-12T00:54:04.696Z,87.73
2022-10-12T00:57:07.774Z,87.89
2022-10-12T01:00:10.839Z,87.54
2022-10-12T01:03:14.336Z,87.52
2022-10-12T01:06:16.521Z,88.26
2022-10-12T01:09:19.822Z,87.74
2022-10-12T01:12:22.164Z,87.77
2022-10-12T01:15:27.481Z,88.05
2022-10-12T01:18:32.071Z,87.77
2022-10-12T01:21:37.773Z,88.03
2022-10-12T01:24:45.189Z,88.06
2022-10-12T01:27:48.466Z,87.85
2022-10-12T01:30:55.102Z,87.51
2022-10-12T01:33:58.941Z,87.76
2022-10-12T01:37:02.614Z,88.49
2022-10-12T01:40:10.873Z,87.06
2022-10-12T01:43:12.679Z,87.96
2022-10-12T01:46:32.970Z,87.60
2022-10-12T01:49:36.217Z,87.60
2022-10-12T01:52:43.240Z,88.05
2022-10-12T01:55:48.797Z,88.73
2022-10-12T01:58:57.884Z,88.19
2022-10-12T02:02:04.293Z,87.89
2022-10-12T02:05:12.269Z,88.00
2022-10-12T02:08:17.349Z,88.02
2022-10-12T02:11:20.449Z,87.84
2022-10-12T02:14:23.671Z,88.26
2022-10-12T02:17:25.213Z,87.81
2022-10-12T02:20:28.545Z,87.89
2022-10-12T02:23:30.411Z,88.01
2022-10-12T02:26:33.636Z,87.90
2022-10-12T02:29:37.550Z,88.92
2022-10-12T02:32:43.095Z,87.79
2022-10-12T02:35:50.137Z,88.18
2022-10-12T02:38:55.345Z,88.08
2022-10-12T02:42:02.248Z,87.63
2022-10-12T02:45:05.747Z,87.96
2022-10-12T02:48:08.685Z,88.10
2022-10-12T02:51:12.108Z,88.01
2022-10-12T02:54:13.989Z,88.91
2022-10-12T02:57:15.633Z,88.78
2022-10-12T03:00:17.876Z,88.73
2022-10-12T03:03:19.583Z,88.92
2022-10-12T03:06:22.745Z,88.49
2022-10-12T03:09:24.425Z,88.25
2022-10-12T03:12:26.271Z,88.74
2022-10-12T03:15:28.199Z,88.89
2022-10-12T03:18:29.889Z,88.36
2022-10-12T03:21:33.059Z,88.42
2022-10-12T03:24:34.818Z,88.52
2022-10-12T03:27:36.956Z,88.15
2022-10-12T03:30:38.936Z,88.51
2022-10-12T03:33:42.027Z,88.79
2022-10-12T03:36:45.275Z,88.64
2022-10-12T03:39:47.051Z,89.14
2022-10-12T03:42:48.807Z,89.33
2022-10-12T03:45:50.587Z,89.22
2022-10-12T03:48:52.184Z,89.34
2022-10-12T03:51:55.311Z,89.08
2022-10-12T03:54:56.789Z,88.62
2022-10-12T03:57:58.377Z,88.98
2022-10-12T04:01:00.318Z,89.23
2022-10-12T04:04:02.214Z,88.95
2022-10-12T04:07:05.215Z,88.76
2022-10-12T04:10:07.363Z,89.09
2022-10-12T04:13:08.888Z,89.31
2022-10-12T04:16:10.430Z,89.42
2022-10-12T04:19:12.824Z,89.05
2022-10-12T04:22:16.155Z,89.31
2022-10-12T04:25:18.008Z,89.34
2022-10-12T04:28:19.765Z,89.40
2022-10-12T04:31:21.367Z,89.04
2022-10-12T04:34:23.060Z,88.88
2022-10-12T04:37:28.176Z,89.44
2022-10-12T04:40:30.371Z,89.56
2022-10-12T04:43:32.725Z,89.27
2022-10-12T04:46:39.561Z,89.70
2022-10-12T04:49:41.388Z,89.72
2022-10-12T04:52:44.574Z,89.54
2022-10-12T04:55:46.357Z,88.93
2022-10-12T04:58:48.068Z,89.18
2022-10-12T05:01:49.901Z,89.73
2022-10-12T05:04:52.410Z,89.53
2022-10-12T05:07:55.730Z,89.26
2022-10-12T05:10:59.416Z,89.45
2022-10-12T05:14:01.132Z,89.53
2022-10-12T05:17:03.190Z,89.19
2022-10-12T05:20:05.415Z,89.52
2022-10-12T05:23:11.292Z,89.82
2022-10-12T05:26:12.955Z,89.65
2022-10-12T05:29:14.634Z,89.58
2022-10-12T05:38:50.462Z,89.88
2022-10-12T05:41:55.476Z,89.82
2022-10-12T05:44:57.131Z,89.86
2022-10-12T05:48:01.079Z,90.02
2022-10-12T05:51:02.842Z,90.00
2022-10-12T05:54:07.390Z,89.92
2022-10-12T05:57:09.079Z,90.15
2022-10-12T06:00:11.068Z,90.26
2022-10-12T06:03:14.121Z,90.27
2022-10-12T06:06:17.349Z,90.11
2022-10-12T06:09:20.406Z,90.34
2022-10-12T06:12:22.101Z,90.46
2022-10-12T06:15:24.114Z,90.49
2022-10-12T06:18:28.748Z,90.08
2022-10-12T06:21:34.549Z,90.51
2022-10-12T06:24:38.517Z,90.19
2022-10-12T06:27:40.128Z,90.54
2022-10-12T06:30:43.239Z,90.36
2022-10-12T06:33:44.832Z,90.22
2022-10-12T06:36:46.492Z,90.53
2022-10-12T06:39:49.632Z,90.12
2022-10-12T06:42:58.331Z,90.19
2022-10-12T06:46:01.054Z,90.50
2022-10-12T06:49:02.892Z,91.04
2022-10-12T06:52:04.699Z,90.46
2022-10-12T06:55:08.546Z,91.10
2022-10-12T06:58:10.235Z,91.14
2022-10-12T07:01:14.957Z,91.28
2022-10-12T07:04:16.628Z,91.27
2022-10-12T07:07:18.390Z,90.96
2022-10-12T07:10:21.357Z,91.41
2022-10-12T07:13:22.938Z,91.17
2022-10-12T07:16:24.685Z,91.38
2022-10-12T07:19:26.224Z,91.35
2022-10-12T07:22:27.833Z,91.10
2022-10-12T07:25:35.445Z,90.87
2022-10-12T07:28:37.499Z,90.40
2022-10-12T07:31:39.217Z,90.01
2022-10-12T07:34:41.919Z,89.87
2022-10-12T07:37:43.514Z,90.26
2022-10-12T07:40:46.550Z,90.18
2022-10-12T07:43:48.313Z,89.46
2022-10-12T07:46:49.887Z,89.26
2022-10-12T07:49:51.469Z,89.23
2022-10-12T07:52:53.189Z,89.34
2022-10-12T07:56:00.934Z,89.29
2022-10-12T07:59:02.647Z,89.17
2022-10-12T08:02:04.388Z,88.81
2022-10-12T08:05:06.616Z,89.02
2022-10-12T08:08:12.249Z,89.31
2022-10-12T08:11:15.291Z,89.22
2022-10-12T08:14:17.114Z,88.59
2022-10-12T08:17:18.767Z,88.35
2022-10-12T08:20:20.571Z,88.31
2022-10-12T08:23:22.719Z,88.16
2022-10-12T08:26:27.787Z,87.00
2022-10-12T08:29:29.321Z,87.43
2022-10-12T08:32:31.730Z,87.43
2022-10-12T08:35:33.525Z,86.60
2022-10-12T08:38:35.397Z,86.44
2022-10-12T08:41:44.946Z,86.10
2022-10-12T08:44:54.975Z,85.87
2022-10-12T08:48:01.407Z,85.89
2022-10-12T08:51:05.480Z,85.52
2022-10-12T08:54:08.703Z,85.60
2022-10-12T08:57:18.758Z,85.11
2022-10-12T09:00:20.483Z,84.95
2022-10-12T09:03:27.993Z,84.95
2022-10-12T09:06:33.661Z,85.14
2022-10-12T09:09:43.940Z,85.32
2022-10-12T09:12:52.498Z,85.77
2022-10-12T09:15:57.326Z,85.63
2022-10-12T09:19:01.210Z,85.29
2022-10-12T09:22:03.412Z,85.43
2022-10-12T09:25:06.521Z,85.21
2022-10-12T09:28:14.164Z,85.35
2022-10-12T09:31:29.123Z,84.55
2022-10-12T09:34:31.001Z,82.91
2022-10-12T09:37:33.267Z,82.59
2022-10-12T09:40:36.928Z,82.56
2022-10-12T09:43:41.696Z,82.46
2022-10-12T09:46:46.769Z,81.44
2022-10-12T09:49:52.610Z,80.99
2022-10-12T09:52:55.241Z,80.58
2022-10-12T09:55:58.710Z,80.26
2022-10-12T09:59:01.333Z,80.71
2022-10-12T10:02:13.419Z,79.48
2022-10-12T10:05:24.939Z,79.77
2022-10-12T10:08:26.764Z,79.91
2022-10-12T10:11:31.823Z,79.66
2022-10-12T10:14:33.989Z,79.56
2022-10-12T10:17:37.098Z,79.46
2022-10-12T10:20:42.393Z,79.55
2022-10-12T10:27:02.383Z,78.32
2022-10-12T10:34:13.882Z,78.06
2022-10-12T10:37:18.722Z,76.77
2022-10-12T10:40:22.683Z,76.41
2022-10-12T10:43:27.508Z,75.63
2022-10-12T10:46:31.206Z,75.63
2022-10-12T10:49:39.675Z,75.55
2022-10-12T10:52:41.377Z,74.55
2022-10-12T10:55:45.194Z,74.25
2022-10-12T10:58:48.853Z,73.91
2022-10-12T11:01:54.687Z,73.04
2022-10-12T11:05:03.278Z,72.98
2022-10-12T11:08:06.172Z,72.29
2022-10-12T11:11:10.943Z,72.30
2022-10-12T11:14:14.877Z,72.52
2022-10-12T11:17:18.587Z,72.66
2022-10-12T11:20:36.963Z,71.38
2022-10-12T11:23:42.303Z,71.50
2022-10-12T11:26:47.727Z,71.14
2022-10-12T11:30:02.889Z,70.00
2022-10-12T11:33:12.443Z,70.15
2022-10-12T11:36:19.678Z,69.64
2022-10-12T11:39:27.423Z,69.30
2022-10-12T11:42:31.211Z,70.63
2022-10-12T11:45:37.895Z,68.43
2022-10-12T11:48:42.322Z,68.83
2022-10-12T11:51:47.795Z,69.83
2022-10-12T11:54:53.887Z,67.21
2022-10-12T11:57:57.031Z,68.19
2022-10-12T12:01:13.481Z,69.10
2022-10-12T12:04:40.740Z,67.97
2022-10-12T12:07:48.905Z,67.03
2022-10-12T12:10:51.424Z,68.12
2022-10-12T12:14:17.130Z,68.33
2022-10-12T12:17:25.821Z,67.77
2022-10-12T12:20:51.373Z,66.53
2022-10-12T12:23:56.829Z,66.56
2022-10-12T12:26:58.580Z,67.17
2022-10-12T12:30:01.576Z,65.02
2022-10-12T12:33:05.089Z,65.20
2022-10-12T12:36:08.311Z,66.27
2022-10-12T12:39:20.403Z,65.90
2022-10-12T12:42:23.940Z,66.05
2022-10-12T12:45:38.776Z,65.71
2022-10-12T12:48:59.512Z,65.45
2022-10-12T12:52:01.424Z,65.67
2022-10-12T12:55:18.828Z,65.28
2022-10-12T12:58:30.195Z,64.98
2022-10-12T13:01:44.158Z,65.39
2022-10-12T13:05:13.122Z,65.82
2022-10-12T13:08:24.777Z,66.85
2022-10-12T13:11:35.459Z,66.40
2022-10-12T13:14:51.463Z,66.95
2022-10-12T13:18:04.414Z,67.04
2022-10-12T13:21:08.191Z,67.41
2022-10-12T13:24:15.121Z,65.19
2022-10-12T13:27:20.495Z,66.30
2022-10-12T13:30:26.676Z,66.33
2022-10-12T13:33:32.432Z,66.69
2022-10-12T13:36:36.789Z,66.46
2022-10-12T13:39:39.530Z,66.37
2022-10-12T13:42:43.149Z,67.17
2022-10-12T13:45:45.171Z,66.37
2022-10-12T13:48:59.663Z,66.03
2022-10-12T13:52:03.264Z,66.18
2022-10-12T13:55:15.591Z,66.57
2022-10-12T13:58:24.054Z,66.71
2022-10-12T14:01:25.636Z,67.13
2022-10-12T14:04:29.050Z,67.67
2022-10-12T14:07:32.647Z,67.40
2022-10-12T14:10:35.250Z,66.73
2022-10-12T14:13:38.524Z,66.56
2022-10-12T14:16:43.174Z,67.17
2022-10-12T14:19:45.584Z,66.34
2022-10-12T14:22:48.760Z,66.96
2022-10-12T14:25:51.153Z,66.36
2022-10-12T14:28:54.545Z,66.59
2022-10-12T14:31:57.518Z,67.19
2022-10-12T14:35:10.858Z,67.13
2022-10-12T14:38:30.798Z,66.97
2022-10-12T14:41:34.540Z,67.16
2022-10-12T14:44:44.484Z,67.48
2022-10-12T14:47:46.316Z,67.62
2022-10-12T14:50:48.149Z,68.01
2022-10-12T14:53:57.566Z,67.67
2022-10-12T14:57:02.101Z,67.19
2022-10-12T15:00:05.813Z,67.24
2022-10-12T15:03:07.538Z,67.05
2022-10-12T15:06:11.887Z,67.18
2022-10-12T15:09:13.440Z,67.55
2022-10-12T15:12:16.347Z,67.78
2022-10-12T15:15:28.839Z,68.01
2022-10-12T15:18:30.676Z,67.87
2022-10-12T15:21:32.686Z,67.74
2022-10-12T15:24:34.600Z,68.25
2022-10-12T15:27:36.337Z,68.08
2022-10-12T15:30:52.213Z,68.35
2022-10-12T15:34:00.211Z,68.65
2022-10-12T15:37:06.503Z,68.75
2022-10-12T15:40:11.034Z,68.89
2022-10-12T15:43:13.595Z,69.07
2022-10-12T15:46:16.829Z,69.26
2022-10-12T15:49:19.913Z,69.73
2022-10-12T15:52:22.336Z,69.95
2022-10-12T15:55:24.880Z,70.16
2022-10-12T15:58:26.474Z,70.52
2022-10-12T16:01:30.448Z,70.95
2022-10-12T16:04:31.936Z,71.71
2022-10-12T16:07:33.526Z,72.51
2022-10-12T16:10:37.176Z,73.49
2022-10-12T16:13:46.821Z,74.25
2022-10-12T16:16:52.776Z,74.89
2022-10-12T16:19:54.872Z,75.61
2022-10-12T16:22:56.579Z,76.20
2022-10-12T16:25:58.708Z,76.44
2022-10-12T16:29:00.437Z,76.98
2022-10-12T16:32:03.358Z,77.76
2022-10-12T16:35:05.872Z,78.11
2022-10-12T16:38:09.258Z,78.64
2022-10-12T16:41:12.691Z,78.54
2022-10-12T16:44:14.191Z,79.01
2022-10-12T16:47:17.154Z,79.38
2022-10-12T16:50:19.172Z,79.91
2022-10-12T16:53:20.833Z,80.17
2022-10-12T16:56:22.444Z,80.37
2022-10-12T16:59:24.321Z,80.68
2022-10-12T17:02:30.784Z,80.96
2022-10-12T17:05:32.574Z,81.19
2022-10-12T17:08:35.570Z,81.12
2022-10-12T17:11:38.711Z,81.26
2022-10-12T17:14:40.462Z,81.46
2022-10-12T17:17:45.460Z,81.68
2022-10-12T17:20:49.418Z,81.92
2022-10-12T17:23:55.837Z,82.08
2022-10-12T17:26:58.036Z,82.23
2022-10-12T17:29:59.799Z,82.30
2022-10-12T17:33:02.974Z,82.02
2022-10-12T17:36:05.799Z,82.13
2022-10-12T17:39:07.393Z,82.04
2022-10-12T17:42:09.258Z,81.84
2022-10-12T17:45:11.159Z,82.29
2022-10-12T17:48:15.516Z,82.06
2022-10-12T17:51:18.515Z,82.50
2022-10-12T17:54:21.159Z,82.64
2022-10-12T17:57:22.838Z,82.71
2022-10-12T18:00:26.760Z,82.85
2022-10-12T18:03:29.706Z,83.17
2022-10-12T18:06:32.937Z,82.90
2022-10-12T18:09:34.794Z,83.07
2022-10-12T18:12:36.816Z,83.18
2022-10-12T18:15:42.156Z,83.65
2022-10-12T18:18:45.356Z,83.57
2022-10-12T18:21:46.838Z,83.84
2022-10-12T18:24:49.028Z,84.01
2022-10-12T18:27:51.747Z,84.45
2022-10-12T18:30:53.307Z,84.48
2022-10-12T18:33:57.715Z,84.32
2022-10-12T18:36:59.300Z,84.76
2022-10-12T18:40:00.970Z,84.64
2022-10-12T18:43:03.048Z,84.20
2022-10-12T18:46:08.038Z,84.51
2022-10-12T18:49:11.405Z,84.89
2022-10-12T18:52:12.866Z,84.47
2022-10-12T18:55:14.640Z,84.74
2022-10-12T18:58:16.256Z,84.33
2022-10-12T19:01:19.251Z,84.90
2022-10-12T19:04:22.204Z,84.83
2022-10-12T19:07:23.711Z,84.91
2022-10-12T19:10:25.283Z,84.83
2022-10-12T19:13:26.841Z,85.01
2022-10-12T19:16:30.853Z,85.02
2022-10-12T19:19:33.948Z,85.40
2022-10-12T19:22:35.838Z,85.09
2022-10-12T19:25:38.314Z,85.17
2022-10-12T19:28:40.156Z,85.65
2022-10-12T19:31:43.856Z,85.49
2022-10-12T19:34:48.953Z,85.43
2022-10-12T19:37:50.600Z,85.43
2022-10-12T19:40:52.311Z,85.45
2022-10-12T19:43:54.077Z,85.87
2022-10-12T19:46:57.778Z,86.05
2022-10-12T19:50:01.610Z,85.96
2022-10-12T19:53:03.361Z,86.02
2022-10-12T19:56:06.103Z,86.40
2022-10-12T19:59:07.706Z,86.74
2022-10-12T20:02:09.905Z,87.04
2022-10-12T20:05:12.961Z,86.92
2022-10-12T20:08:18.046Z,86.91
2022-10-12T20:11:24.361Z,87.02
2022-10-12T20:14:26.743Z,87.14
2022-10-12T20:17:28.269Z,86.97
2022-10-12T20:20:31.307Z,87.26
2022-10-12T20:23:33.975Z,87.67
2022-10-12T20:26:35.720Z,88.05
2022-10-12T20:29:37.342Z,88.39
2022-10-12T20:32:39.035Z,88.19
2022-10-12T20:35:47.215Z,88.00
2022-10-12T20:38:48.969Z,88.19
2022-10-12T20:41:50.451Z,87.92
2022-10-12T20:44:51.975Z,88.01
2022-10-12T20:47:53.637Z,88.05
2022-10-12T20:50:56.820Z,88.12
2022-10-12T20:54:01.465Z,88.47
2022-10-12T20:57:03.114Z,88.67
2022-10-12T21:00:05.768Z,88.56
2022-10-12T21:03:07.536Z,88.49
2022-10-12T21:06:12.294Z,88.36
2022-10-12T21:09:14.668Z,88.22
2022-10-12T21:12:16.601Z,88.35
2022-10-12T21:15:18.392Z,88.37
2022-10-12T21:18:21.136Z,88.51
2022-10-12T21:21:24.356Z,88.81
2022-10-12T21:24:25.886Z,89.26
2022-10-12T21:27:27.642Z,89.15
2022-10-12T21:30:29.194Z,89.30
2022-10-12T21:33:30.856Z,89.48
2022-10-12T21:36:35.480Z,89.74
2022-10-12T21:39:37.234Z,89.63
2022-10-12T21:42:40.592Z,89.67
2022-10-12T21:45:42.214Z,89.68
2022-10-12T21:48:49.943Z,89.83
2022-10-12T21:51:52.947Z,89.83
2022-10-12T21:54:54.571Z,89.78
2022-10-12T21:57:56.170Z,90.11
2022-10-12T22:01:03.611Z,90.08
2022-10-12T22:04:06.305Z,90.24
2022-10-12T22:07:09.398Z,90.17
2022-10-12T22:10:11.314Z,90.19
2022-10-12T22:13:12.917Z,90.37
2022-10-12T22:16:18.675Z,90.15
2022-10-12T22:19:21.003Z,90.49
2022-10-12T22:22:24.386Z,90.60
2022-10-12T22:25:25.904Z,90.53
2022-10-12T22:28:27.768Z,90.73
2022-10-12T22:31:30.233Z,90.88
2022-10-12T22:34:32.115Z,90.93
2022-10-12T22:37:35.492Z,90.70
2022-10-12T22:40:37.189Z,90.65
2022-10-12T22:43:39.556Z,90.94
2022-10-12T22:46:41.331Z,91.02
2022-10-12T22:49:43.118Z,90.74
2022-10-12T22:52:51.209Z,90.63
2022-10-12T22:55:57.347Z,90.53
2022-10-12T22:59:00.532Z,90.75
2022-10-12T23:02:02.087Z,90.81
2022-10-12T23:05:04.193Z,90.87
2022-10-12T23:08:07.271Z,91.25
2022-10-12T23:11:12.678Z,91.38
2022-10-12T23:14:14.377Z,91.38
2022-10-12T23:17:16.415Z,91.55
2022-10-12T23:20:18.164Z,91.53
2022-10-12T23:23:21.693Z,91.83
2022-10-12T23:26:24.508Z,91.70
2022-10-12T23:29:26.105Z,91.69
2022-10-12T23:32:29.459Z,91.37
2022-10-12T23:35:31.183Z,91.63
2022-10-12T23:38:34.775Z,91.69
2022-10-12T23:41:36.914Z,91.46
2022-10-12T23:44:38.463Z,91.71
2022-10-12T23:47:40.185Z,92.15
2022-10-12T23:50:41.851Z,92.02
2022-10-12T23:53:45.119Z,92.38
2022-10-12T23:56:46.705Z,92.72
2022-10-12T23:59:48.401Z,92.73
